Pinetta, FL

8:24 PM EST on February 10, 2016 (GMT -0500)
Cherry Lake WeatherSTEM | | Change Station
CLOSE
Current Station
Personal Weather Station
Location: Florida, FL
Elevation: 157 ft
Nearby Weather Stations
Active Advisory: Freeze Warning

Elev 157 ft 30.62 °N, 83.41 °W | Updated 4 minutes ago

Clear
Clear
43.3 °F
Feels Like 43 °F
N
3.0
Wind Variable Wind from SW

Today
High -- | Low -- °F
--% Chance of Precip.
Yesterday
High -- | Low -- °F
Precip. -- in
Pressure 30.25 in
Visibility 10.0 miles
Clouds Clear
Windchill 43 °F
Dew Point 21 °F
Humidity 42%
Rainfall 0.00 in
Snow Depth Not available.
7:18 AM 6:17 PM
Waxing Crescent, 8% visible
METAR KVLD 110053Z 00000KT 10SM CLR 02/M04 A3022 RMK AO2 SLP244 T00171044
Pressure 30.25 in
Visibility 10.0 miles
Clouds Clear
Windchill 43 °F
Dew Point 21 °F
Humidity 42%
Rainfall 0.00 in
Snow Depth Not available.
7:18 AM 6:17 PM
Waxing Crescent, 8% visible
METAR KVLD 110053Z 00000KT 10SM CLR 02/M04 A3022 RMK AO2 SLP244 T00171044

10-Day Weather Forecast

Almanac

Astronomy

Feb. 10, 2016 Rise Set
Actual Time
Civil Twilight
Nautical Twilight
Astronomical Twilight
Moon
Length of Visible Light
Length of Day
Tomorrow will be .
, % of the Moon is Illuminated

Today's Extremes

State Highs State Lows

Community

WunderPhotos

Upload Photos

1,891,963 photos uploaded!

WunderBlog® & News

Nearby

Air Quality

  Air Quality AQ Index Pollutant
Not available.

Snow Depth

Station Depth Elevation

Earthquake Activity

City Distance Mag. Time & Date
Minimum magnitude displayed is 2.5.

Coastal Water Temperatures

Place Temperature

Stations

Nearby Weather Stations

Station Location Temp. Windchill Dew Point Humidity Wind Precip. Elev Updated Type
                   

Watches & Warnings

Freeze Warning
Issued: 1:32 PM CST Feb. 10, 2016 – National Weather Service

... Freeze warning in effect from midnight EST /11 PM CST/ tonight
to 9 am EST /8 am CST/ Thursday...

The National Weather Service in Tallahassee has issued a freeze
warning... which is in effect from midnight EST /11 PM CST/
tonight to 9 am EST /8 am CST/ Thursday. The freeze watch is no
longer in effect.

* Min temperatures... 26 to 32 degrees.

Precautionary/preparedness actions...

A freeze warning means sub-freezing temperatures are imminent or
highly likely. These conditions will kill crops and other
sensitive vegetation.